• Join FlightAware (Why Join?)
  • Login
  • US Flag 
03:22PM EST


 

Airport Tracker/Info


-or-


 

Live Flight TrackerFlight Track Log ✈ UAL1035 ✈ 23-Jul-2013 ✈ KIAH - SEQM / UIO

Flight Track Log - Related Links

Times and Time Zones

All times are in EDT time to prevent confusion due to time zone crossing. See the UAL1035 flight status page for this flight to view local times or setup timezone preferences in your user account.

Time Position Orientation Groundspeed Altitude Reporting Facility
EDT Latitude Longitude Course Direction KTS MPH feet Rate Location/Type
06:56PM 29.9547 -95.3366 145° Southeast 180 207 1,000  Level FlightAware ADS-B
06:56PM 29.9525 -95.3343 138° Southeast 183 211 1,100 1,380 Climbing FlightAware ADS-B
06:57PM 29.9469 -95.3270 132° Southeast 192 221 1,300 1,200 Climbing FlightAware ADS-B
06:57PM 29.9402 -95.3180 131° Southeast 205 236 1,500 900 Climbing FlightAware ADS-B
06:57PM 29.9308 -95.3052 130° Southeast 224 258 1,700 1,500 Climbing FlightAware ADS-B
06:57PM 29.9194 -95.2900 131° Southeast 230 265 2,300 2,160 Climbing FlightAware ADS-B
06:58PM 29.9073 -95.2734 130° Southeast 238 274 2,900 1,980 Climbing FlightAware ADS-B
06:58PM 29.8958 -95.2579 131° Southeast 247 284 3,400 1,560 Climbing FlightAware ADS-B
06:58PM 29.8884 -95.2480 131° Southeast 259 298 3,600 1,440 Climbing FlightAware ADS-B
06:58PM 29.8758 -95.2314 131° Southeast 275 316 4,000 720 Climbing FlightAware ADS-B
06:58PM 29.8619 -95.2132 131° Southeast 278 320 4,000  Level FlightAware ADS-B
06:59PM 29.8493 -95.1963 131° Southeast 280 322 4,000 360 Level FlightAware ADS-B
06:59PM 29.8364 -95.1794 131° Southeast 280 322 4,200 1,500 Climbing FlightAware ADS-B
06:59PM 29.8234 -95.1620 131° Southeast 278 320 4,800 2,460 Climbing FlightAware ADS-B
07:00PM 29.8107 -95.1447 130° Southeast 280 322 5,500 2,760 Climbing FlightAware ADS-B
07:00PM 29.7981 -95.1275 130° Southeast 282 325 6,200 2,580 Climbing FlightAware ADS-B
07:00PM 29.7853 -95.1101 130° Southeast 285 328 6,800 2,460 Climbing FlightAware ADS-B
07:00PM 29.7715 -95.0914 130° Southeast 286 329 7,500 2,580 Climbing FlightAware ADS-B
07:00PM 29.7657 -95.0842 133° Southeast 284 327 7,800 2,160 Climbing FlightAware ADS-B
07:00PM 29.7619 -95.0803 138° Southeast 283 326 7,900 2,220 Climbing FlightAware ADS-B
07:01PM 29.7574 -95.0767 145° Southeast 281 323 8,100 3,420 Climbing FlightAware ADS-B
07:01PM 29.7535 -95.0741 150° Southeast 280 322 8,300 2,520 Climbing FlightAware ADS-B
07:01PM 29.7497 -95.0718 152° Southeast 280 322 8,400 2,220 Climbing FlightAware ADS-B
07:01PM 29.7449 -95.0693 156° South 278 320 8,600 2,520 Climbing FlightAware ADS-B
07:01PM 29.7406 -95.0675 160° South 278 320 8,700 2,220 Climbing FlightAware ADS-B
07:01PM 29.7351 -95.0655 162° South 279 321 8,900 1,980 Climbing FlightAware ADS-B
07:01PM 29.7190 -95.0592 161° South 284 327 9,300 2,040 Climbing FlightAware ADS-B
07:01PM 29.7030 -95.0526 160° South 286 329 9,800 1,920 Climbing FlightAware ADS-B
07:02PM 29.6645 -95.0361 160° South 305 351 10,700 1,380 Climbing FlightAware ADS-B
07:02PM 29.6222 -95.0179 159° South 333 383 11,200 900 Climbing FlightAware ADS-B
07:03PM 29.5764 -94.9983 160° South 362 417 11,600 1,500 Climbing FlightAware ADS-B
07:04PM 29.4689 -94.9526 160° South 377 434 13,600 1,740 Climbing FlightAware ADS-B
07:04PM 29.4151 -94.9297 160° South 396 456 14,500 1,740 Climbing FlightAware ADS-B
07:05PM 29.3622 -94.9072 160° South 405 466 15,400 1,740 Climbing FlightAware ADS-B
07:05PM 29.3075 -94.8840 160° South 412 474 16,300 1,800 Climbing FlightAware ADS-B
07:06PM 29.2853 -94.8744 159° South 416 479 16,700 1,800 Climbing FlightAware ADS-B
07:06PM 29.2710 -94.8673 157° South 419 482 16,900 1,620 Climbing FlightAware ADS-B
07:06PM 29.2481 -94.8535 152° Southeast 422 486 17,300 1,500 Climbing FlightAware ADS-B
07:06PM 29.2261 -94.8375 148° Southeast 427 491 17,600 1,320 Climbing FlightAware ADS-B
07:06PM 29.2175 -94.8303 144° Southeast 428 493 17,700 1,500 Climbing FlightAware ADS-B
07:07PM 29.1678 -94.7884 144° Southeast 437 503 18,500 1,440 Climbing FlightAware ADS-B
07:07PM 29.1168 -94.7452 143° Southeast 445 512 19,200 1,500 Climbing FlightAware ADS-B
07:08PM 29.0655 -94.7018 144° Southeast 447 514 20,100 1,620 Climbing FlightAware ADS-B
07:08PM 29.0141 -94.6585 144° Southeast 451 519 20,900 1,500 Climbing FlightAware ADS-B
07:09PM 28.9617 -94.6143 144° Southeast 454 522 21,700 1,560 Climbing FlightAware ADS-B
07:09PM 28.9056 -94.5670 144° Southeast 455 524 22,600 1,560 Climbing FlightAware ADS-B
07:10PM 28.8479 -94.5185 144° Southeast 456 525 23,500 1,380 Climbing FlightAware ADS-B
07:10PM 28.7955 -94.4745 144° Southeast 459 528 24,100 1,020 Climbing FlightAware ADS-B
07:11PM 28.7423 -94.4299 144° Southeast 465 535 24,600 600 Climbing FlightAware ADS-B
07:12PM 28.6350 -94.3390 143° Southeast 469 540 25,100 900 Climbing FlightAware
07:12PM 28.5969 -94.3085 145° Southeast 479 551 25,900 1,380 Climbing FlightAware ADS-B
07:13PM 28.4978 -94.2269 145° Southeast 476 548 26,900 1,020 Climbing Houston Center
07:14PM 28.3894 -94.1375 144° Southeast 480 552 28,100 1,020 Climbing Houston Center
07:15PM 28.2817 -94.0469 143° Southeast 482 555 29,100 960 Climbing Houston Center
07:17PM 28.1742 -93.9586 144° Southeast 479 551 30,200 1,200 Climbing Houston Center
07:18PM 28.0478 -93.8528 144° Southeast 474 545 31,600 1,140 Climbing Houston Center
07:19PM 27.9411 -93.7653 144° Southeast 473 544 32,600 900 Climbing Houston Center
07:20PM 27.8347 -93.6800 145° Southeast 471 542 33,500 780 Climbing Houston Center
07:21PM 27.7294 -93.5931 144° Southeast 470 541 34,300 720 Climbing Houston Center
07:22PM 27.6236 -93.5078 144° Southeast 469 540 35,000 240 Climbing Houston Center
07:23PM 27.5192 -93.4200 143° Southeast 467 537 34,900  Descending Houston Center
07:24PM 27.3931 -93.3147 143° Southeast 469 540 35,000  Climbing Houston Center
07:25PM 27.2881 -93.2339 146° Southeast 467 537 35,000 -60 Level Houston Center
07:26PM 27.1828 -93.1483 144° Southeast 466 536 34,900 -60 Descending Houston Center
07:27PM 27.0792 -93.0611 143° Southeast 465 535 34,900  Level Houston Center
07:28PM 26.9753 -92.9778 144° Southeast 463 533 35,000  Climbing Houston Center
07:30PM 26.8126 -92.8437 144° Southeast  Level FlightAware Approximate
07:37PM 26.0752 -92.3573 149° Southeast  Level FlightAware Approximate
07:38PM 25.9696 -92.2886 150° Southeast  Level FlightAware Approximate
07:39PM 25.8640 -92.2199 150° Southeast  Level FlightAware Approximate
07:40PM 25.7584 -92.1512 150° Southeast  Level FlightAware Approximate
07:41PM 25.6529 -92.0825 150° Southeast  Level FlightAware Approximate
07:42PM 25.5473 -92.0140 150° Southeast  Level FlightAware Approximate
07:43PM 25.4422 -91.9446 149° Southeast  Level FlightAware Approximate
07:44PM 25.3375 -91.8746 149° Southeast  Level FlightAware Approximate
07:45PM 25.2327 -91.8047 149° Southeast  Level FlightAware Approximate
07:46PM 25.1279 -91.7350 149° Southeast  Level FlightAware Approximate
07:47PM 25.0231 -91.6653 149° Southeast  Level FlightAware Approximate
07:48PM 24.9173 -91.5974 150° Southeast  Level FlightAware Approximate
07:49PM 24.8113 -91.5301 150° Southeast  Level FlightAware Approximate
07:50PM 24.7052 -91.4630 150° Southeast  Level FlightAware Approximate
07:51PM 24.5991 -91.3959 150° Southeast  Level FlightAware Approximate
07:52PM 24.4927 -91.3298 156° South  Level FlightAware Approximate
07:53PM 24.3808 -91.2754 156° South  Level FlightAware Approximate
07:54PM 24.2688 -91.2212 156° South  Level FlightAware Approximate
07:55PM 24.1569 -91.1671 156° South  Level FlightAware Approximate
07:56PM 24.0449 -91.1131 156° South  Level FlightAware Approximate
07:56PM 23.8910 -91.0520 156° South 450 518 35,000  Level FlightAware
07:56PM 23.8200 -91.0190 157° South 450 518 35,000  Level FlightAware
07:57PM 23.7590 -90.9910 157° South 450 518 35,000  Level FlightAware
07:58PM 23.6420 -90.9390 158° South 446 513 35,000  Level FlightAware
07:59PM 23.5590 -90.9010 157° South 446 513 35,000  Level FlightAware
07:59PM 23.4840 -90.8670 157° South 447 514 35,000  Level FlightAware
08:00PM 23.3980 -90.8280 157° South 448 516 35,000  Level FlightAware
08:01PM 23.3210 -90.7930 157° South 450 518 35,000  Level FlightAware
08:01PM 23.2400 -90.7560 157° South 450 518 35,000  Level FlightAware
08:02PM 23.1610 -90.7210 158° South 452 520 35,000  Level FlightAware
08:03PM 23.0740 -90.6810 157° South 453 521 35,000  Level FlightAware
08:03PM 22.9960 -90.6470 158° South 454 522 35,000  Level FlightAware
08:04PM 22.9280 -90.6160 157° South 455 524 35,000  Level FlightAware
08:05PM 22.8470 -90.5800 158° South 455 524 35,000  Level FlightAware
08:05PM 22.7610 -90.5410 157° South 455 524 35,000  Level FlightAware
08:06PM 22.6830 -90.5060 158° South 455 524 35,000  Level FlightAware
08:07PM 22.6040 -90.4710 158° South 453 521 35,000  Level FlightAware
08:08PM 22.5160 -90.4310 157° South 451 519 35,000  Level FlightAware
08:08PM 22.4310 -90.3940 158° South 449 517 35,000  Level FlightAware
08:09PM 22.3630 -90.3630 157° South 448 516 35,000  Level FlightAware
08:09PM 22.2930 -90.3320 158° South 447 514 35,000  Level FlightAware
08:10PM 22.2080 -90.2950 158° South 448 516 35,000  Level FlightAware
08:11PM 22.1310 -90.2610 158° South 449 517 35,000  Level FlightAware
08:12PM 22.0560 -90.2270 157° South 450 518 35,000  Level FlightAware
08:12PM 21.9780 -90.1920 157° South 451 519 35,000  Level FlightAware
08:13PM 21.9000 -90.1580 158° South 452 520 35,000  Level FlightAware
08:14PM 21.8130 -90.1200 158° South 454 522 35,000  Level FlightAware
08:14PM 21.7320 -90.0840 158° South 456 525 35,000  Level FlightAware
08:15PM 21.6550 -90.0430 154° Southeast 458 527 35,000  Level FlightAware
08:16PM 21.5740 -89.9970 152° Southeast 459 528 35,000  Level FlightAware
08:16PM 21.5050 -89.9590 153° Southeast 460 529 35,000  Level FlightAware
08:17PM 21.4300 -89.9170 152° Southeast 459 528 35,000  Level FlightAware
08:18PM 21.3530 -89.8690 150° Southeast 460 529 35,000  Level FlightAware
08:18PM 21.3090 -89.8370 146° Southeast 459 528 35,000  Level FlightAware
08:19PM 21.2460 -89.7930 147° Southeast 455 524 35,000  Level FlightAware
08:20PM 21.1760 -89.7440 147° Southeast 453 521 35,000  Level FlightAware
08:20PM 21.1000 -89.6930 148° Southeast 453 521 35,000  Level FlightAware
08:21PM 20.9900 -89.6200 148° Southeast 452 520 35,000  Level FlightAware
08:22PM 20.9320 -89.5880 153° Southeast 451 519 35,000  Level FlightAware
08:22PM 20.8330 -89.5410 156° South 453 521 35,000  Level FlightAware
08:23PM 20.7670 -89.5110 157° South 455 524 35,000  Level FlightAware
08:24PM 20.6770 -89.4740 159° South 460 529 35,000  Level FlightAware
08:24PM 20.5970 -89.4440 161° South 461 531 35,000  Level FlightAware
08:25PM 20.5240 -89.4170 161° South 461 531 35,000  Level FlightAware
08:26PM 20.4360 -89.3850 161° South 462 532 35,000  Level FlightAware
08:26PM 20.3550 -89.3550 161° South 462 532 35,000  Level FlightAware
08:27PM 20.2650 -89.3230 162° South 462 532 35,000  Level FlightAware
08:28PM 20.1850 -89.2930 161° South 464 534 35,000  Level FlightAware
08:28PM 20.1070 -89.2650 161° South 465 535 35,000  Level FlightAware
08:29PM 20.0080 -89.2290 161° South 467 537 35,000  Level FlightAware
08:30PM 19.9250 -89.1990 161° South 469 540 35,000  Level FlightAware
08:31PM 19.8360 -89.1660 161° South 470 541 35,000  Level FlightAware
08:31PM 19.7500 -89.1350 161° South 470 541 35,000  Level FlightAware
08:32PM 19.6660 -89.1050 161° South 470 541 35,000  Level FlightAware
08:33PM 19.5760 -89.0720 161° South 469 540 35,000  Level FlightAware
08:33PM 19.4930 -89.0420 161° South 470 541 35,000  Level FlightAware
08:34PM 19.4180 -89.0150 161° South 470 541 35,000  Level FlightAware
08:35PM 19.3370 -88.9850 161° South 469 540 35,000  Level FlightAware
08:35PM 19.2460 -88.9530 162° South 468 539 35,000  Level FlightAware
08:36PM 19.1780 -88.9280 161° South 468 539 35,000  Level FlightAware
08:37PM 19.0870 -88.8950 161° South 467 537 35,000  Level FlightAware
08:38PM 18.9900 -88.8610 162° South 467 537 35,000  Level FlightAware
08:38PM 18.9000 -88.8280 161° South 464 534 35,000  Level FlightAware
08:39PM 18.8160 -88.7980 161° South 465 535 35,000  Level FlightAware
08:40PM 18.6930 -88.7540 161° South 462 532 35,000  Level FlightAware
08:41PM 18.6080 -88.7230 161° South 463 533 35,000  Level FlightAware
08:41PM 18.5390 -88.6980 161° South 463 533 35,000  Level FlightAware
08:42PM 18.4010 -88.6490 161° South 466 536 35,000  Level FlightAware
08:43PM 18.3220 -88.6090 154° Southeast 470 541 35,000  Level FlightAware
08:44PM 18.2480 -88.5690 153° Southeast 470 541 35,000  Level FlightAware
08:45PM 18.1430 -88.5150 154° Southeast 472 543 35,000  Level FlightAware
08:45PM 18.0840 -88.4830 153° Southeast 472 543 35,000  Level FlightAware
08:46PM 17.9650 -88.4230 154° Southeast 472 543 35,000  Level FlightAware
08:47PM 17.9050 -88.3910 153° Southeast 472 543 35,000  Level FlightAware
08:48PM 17.8240 -88.3480 153° Southeast 472 543 35,000  Level FlightAware
08:48PM 17.7650 -88.3160 153° Southeast 472 543 35,000  Level FlightAware
08:49PM 17.6850 -88.2730 153° Southeast 472 543 35,000  Level FlightAware
08:50PM 17.6260 -88.2420 153° Southeast 472 543 35,000  Level FlightAware
08:50PM 17.5470 -88.1990 153° Southeast 472 543 35,000  Level FlightAware
08:51PM 17.4870 -88.1670 153° Southeast 472 543 35,000  Level FlightAware
08:52PM 17.4040 -88.1230 153° Southeast 472 543 35,000  Level FlightAware
08:52PM 17.3450 -88.0910 153° Southeast 472 543 35,000  Level FlightAware
08:53PM 17.2840 -88.0590 153° Southeast 472 543 35,000  Level FlightAware
08:54PM 17.2240 -88.0270 153° Southeast 472 543 35,000  Level FlightAware
08:54PM 17.1410 -87.9830 153° Southeast 472 543 35,000  Level FlightAware
08:55PM 17.0820 -87.9510 153° Southeast 472 543 35,000  Level FlightAware
08:58PM 16.8151 -87.8179 154° Southeast  Level FlightAware Approximate
08:59PM 16.7047 -87.7629 155° Southeast  Level FlightAware Approximate
09:00PM 16.5942 -87.7080 155° Southeast  Level FlightAware Approximate
09:01PM 16.4837 -87.6532 155° Southeast  Level FlightAware Approximate
09:02PM 16.3732 -87.5984 155° Southeast  Level FlightAware Approximate
09:03PM 16.2627 -87.5437 155° Southeast  Level FlightAware Approximate
09:04PM 16.1522 -87.4890 155° Southeast  Level FlightAware Approximate
09:05PM 16.0417 -87.4344 155° Southeast  Level FlightAware Approximate
09:06PM 15.9311 -87.3799 155° Southeast  Level FlightAware Approximate
09:07PM 15.8206 -87.3254 155° Southeast  Level FlightAware Approximate
09:08PM 15.7100 -87.2710 155° Southeast  Level FlightAware Approximate
09:09PM 15.5995 -87.2164 154° Southeast  Level FlightAware Approximate
09:10PM 15.4892 -87.1613 154° Southeast  Level FlightAware Approximate
09:11PM 15.3785 -87.1074 155° Southeast  Level FlightAware Approximate
09:12PM 15.2671 -87.0547 155° Southeast  Level FlightAware Approximate
09:13PM 15.1558 -87.0022 155° Southeast  Level FlightAware Approximate
09:14PM 15.0444 -86.9496 156° South  Level FlightAware Approximate
09:15PM 14.9331 -86.8972 156° South  Level FlightAware Approximate
09:16PM 14.8217 -86.8448 156° South  Level FlightAware Approximate
09:17PM 14.7103 -86.7924 156° South  Level FlightAware Approximate
09:18PM 14.5989 -86.7401 156° South  Level FlightAware Approximate
09:19PM 14.4875 -86.6879 156° South  Level FlightAware Approximate
09:20PM 14.3761 -86.6357 156° South  Level FlightAware Approximate
09:21PM 14.2647 -86.5835 156° South  Level FlightAware Approximate
09:22PM 14.1532 -86.5314 156° South  Level FlightAware Approximate
09:23PM 14.0418 -86.4794 156° South  Level FlightAware Approximate
09:24PM 13.9303 -86.4274 156° South  Level FlightAware Approximate
09:25PM 13.8188 -86.3755 156° South  Level FlightAware Approximate
09:26PM 13.7074 -86.3236 156° South  Level FlightAware Approximate
09:27PM 13.5959 -86.2717 156° South  Level FlightAware Approximate
09:28PM 13.4844 -86.2199 156° South  Level FlightAware Approximate
09:29PM 13.3728 -86.1682 156° South  Level FlightAware Approximate
09:30PM 13.2613 -86.1165 156° South  Level FlightAware Approximate
09:31PM 13.1498 -86.0648 156° South  Level FlightAware Approximate
09:32PM 13.0382 -86.0132 156° South  Level FlightAware Approximate
09:33PM 12.9267 -85.9616 156° South  Level FlightAware Approximate
09:34PM 12.8151 -85.9101 156° South  Level FlightAware Approximate
09:35PM 12.7035 -85.8587 156° South  Level FlightAware Approximate
09:36PM 12.5919 -85.8073 156° South  Level FlightAware Approximate
09:37PM 12.4803 -85.7559 156° South  Level FlightAware Approximate
09:38PM 12.3687 -85.7045 156° South  Level FlightAware Approximate
09:39PM 12.2571 -85.6533 156° South  Level FlightAware Approximate
09:40PM 12.1453 -85.6025 156° South  Level FlightAware Approximate
09:41PM 12.0334 -85.5518 156° South  Level FlightAware Approximate
09:42PM 11.9215 -85.5012 156° South  Level FlightAware Approximate
09:43PM 11.8096 -85.4506 156° South  Level FlightAware Approximate
09:43PM 11.3670 -85.2440 156° South 445 512 35,000  Level FlightAware
09:43PM 11.2900 -85.2070 155° Southeast 446 513 35,000  Level FlightAware
09:44PM 11.2170 -85.1720 155° Southeast 446 513 35,000  Level FlightAware
09:45PM 11.1390 -85.1360 156° South 448 516 35,000  Level FlightAware
09:45PM 11.0600 -85.0980 155° Southeast 449 517 35,000  Level FlightAware
09:46PM 10.9840 -85.0620 155° Southeast 450 518 35,000  Level FlightAware
09:47PM 10.9020 -85.0230 155° Southeast 452 520 35,000  Level FlightAware
09:47PM 10.8270 -84.9870 155° Southeast 454 522 35,000  Level FlightAware
09:48PM 10.7430 -84.9480 155° Southeast 456 525 35,000  Level FlightAware
09:49PM 10.6660 -84.9110 155° Southeast 457 526 35,000  Level FlightAware
09:49PM 10.5970 -84.8780 155° Southeast 458 527 35,000  Level FlightAware
09:50PM 10.5140 -84.8390 155° Southeast 456 525 35,000  Level FlightAware
09:51PM 10.4350 -84.8020 155° Southeast 454 522 35,000  Level FlightAware
09:51PM 10.3670 -84.7690 154° Southeast 453 521 35,000  Level FlightAware
09:52PM 10.2890 -84.7330 156° South 455 524 35,000  Level FlightAware
09:53PM 10.2040 -84.6930 155° Southeast 459 528 35,000  Level FlightAware
09:53PM 10.1270 -84.6560 155° Southeast 459 528 35,000  Level FlightAware
09:54PM 10.0460 -84.6180 155° Southeast 459 528 35,000  Level FlightAware
09:55PM 9.9650 -84.5800 155° Southeast 457 526 35,000  Level FlightAware
09:55PM 9.8850 -84.5420 155° Southeast 455 524 35,000  Level FlightAware
09:56PM 9.8160 -84.5090 155° Southeast 454 522 35,000  Level FlightAware
09:57PM 9.7330 -84.4700 155° Southeast 452 520 35,000  Level FlightAware
09:57PM 9.6560 -84.4340 155° Southeast 450 518 35,000  Level FlightAware
09:58PM 9.5810 -84.3990 155° Southeast 450 518 35,000  Level FlightAware
09:59PM 9.4970 -84.3590 155° Southeast 447 514 35,000  Level FlightAware
10:00PM 9.3730 -84.3010 155° Southeast 446 513 35,000  Level FlightAware
10:01PM 9.2670 -84.2510 155° Southeast 451 519 35,000  Level FlightAware
10:02PM 9.1980 -84.2190 155° Southeast 451 519 35,000  Level FlightAware
10:02PM 9.1520 -84.1970 155° Southeast 452 520 35,000  Level FlightAware
10:03PM 9.0790 -84.1630 155° Southeast 451 519 35,000  Level FlightAware
10:03PM 8.9930 -84.1230 155° Southeast 451 519 35,000  Level FlightAware
10:04PM 8.9180 -84.0880 155° Southeast 452 520 35,000  Level FlightAware
10:05PM 8.8400 -84.0510 155° Southeast 454 522 35,000  Level FlightAware
10:05PM 8.7670 -84.0170 155° Southeast 455 524 35,000  Level FlightAware
10:06PM 8.7020 -83.9850 154° Southeast 455 524 35,000  Level FlightAware
10:07PM 8.6250 -83.9470 154° Southeast 455 524 35,000  Level FlightAware
10:07PM 8.5670 -83.9190 154° Southeast 455 524 35,000  Level FlightAware
10:08PM 8.4900 -83.8810 154° Southeast 455 524 35,000  Level FlightAware
10:09PM 8.4320 -83.8520 154° Southeast 455 524 35,000  Level FlightAware
10:10PM 8.3550 -83.8140 154° Southeast 455 524 35,000  Level FlightAware
10:10PM 8.2970 -83.7850 154° Southeast 455 524 35,000  Level FlightAware
10:11PM 8.2200 -83.7470 154° Southeast 455 524 35,000  Level FlightAware
10:12PM 8.1560 -83.7160 154° Southeast 455 524 35,000  Level FlightAware
10:12PM 8.0780 -83.6780 154° Southeast 455 524 35,000  Level FlightAware
10:13PM 8.0210 -83.6490 153° Southeast 455 524 35,000  Level FlightAware
10:14PM 7.9430 -83.6110 154° Southeast 455 524 35,000  Level FlightAware
10:14PM 7.8840 -83.5820 154° Southeast 455 524 35,000  Level FlightAware
10:15PM 7.8260 -83.5530 154° Southeast 455 524 35,000  Level FlightAware
10:18PM 7.5459 -83.4435 156° South  Level FlightAware Approximate
10:19PM 7.4343 -83.3928 156° South  Level FlightAware Approximate
10:20PM 7.3228 -83.3422 156° South  Level FlightAware Approximate
10:21PM 7.2112 -83.2915 156° South  Level FlightAware Approximate
10:22PM 7.0996 -83.2409 156° South  Level FlightAware Approximate
10:23PM 6.9880 -83.1904 156° South  Level FlightAware Approximate
10:24PM 6.8765 -83.1398 156° South  Level FlightAware Approximate
10:25PM 6.7649 -83.0893 156° South  Level FlightAware Approximate
10:26PM 6.6533 -83.0388 156° South  Level FlightAware Approximate
10:27PM 6.5417 -82.9883 156° South  Level FlightAware Approximate
10:28PM 6.4301 -82.9378 156° South  Level FlightAware Approximate
10:29PM 6.3242 -82.8770 145° Southeast  Level FlightAware Approximate
10:30PM 6.2235 -82.8070 145° Southeast  Level FlightAware Approximate
10:31PM 6.1229 -82.7370 145° Southeast  Level FlightAware Approximate
10:32PM 6.0222 -82.6671 145° Southeast  Level FlightAware Approximate
10:33PM 5.9216 -82.5971 145° Southeast  Level FlightAware Approximate
10:34PM 5.8209 -82.5272 145° Southeast  Level FlightAware Approximate
10:35PM 5.7202 -82.4574 145° Southeast  Level FlightAware Approximate
10:36PM 5.6195 -82.3875 145° Southeast  Level FlightAware Approximate
10:37PM 5.5188 -82.3177 145° Southeast  Level FlightAware Approximate
10:38PM 5.4181 -82.2479 145° Southeast  Level FlightAware Approximate
10:39PM 5.3174 -82.1781 145° Southeast  Level FlightAware Approximate
10:40PM 5.2167 -82.1084 145° Southeast  Level FlightAware Approximate
10:41PM 5.1160 -82.0387 145° Southeast  Level FlightAware Approximate
10:42PM 5.0152 -81.9689 145° Southeast  Level FlightAware Approximate
10:43PM 4.9145 -81.8993 145° Southeast  Level FlightAware Approximate
10:44PM 4.8137 -81.8296 145° Southeast  Level FlightAware Approximate
10:45PM 4.7130 -81.7600 145° Southeast  Level FlightAware Approximate
10:46PM 4.6122 -81.6904 145° Southeast  Level FlightAware Approximate
10:47PM 4.5114 -81.6208 145° Southeast  Level FlightAware Approximate
10:48PM 4.4106 -81.5512 145° Southeast  Level FlightAware Approximate
10:49PM 4.3098 -81.4816 145° Southeast  Level FlightAware Approximate
10:50PM 4.2091 -81.4120 145° Southeast  Level FlightAware Approximate
10:51PM 4.1083 -81.3425 145° Southeast  Level FlightAware Approximate
10:52PM 4.0074 -81.2730 145° Southeast  Level FlightAware Approximate
10:53PM 3.9066 -81.2035 145° Southeast  Level FlightAware Approximate
10:54PM 3.8058 -81.1340 145° Southeast  Level FlightAware Approximate
10:55PM 3.7050 -81.0646 145° Southeast  Level FlightAware Approximate
10:56PM 3.6042 -80.9951 145° Southeast  Level FlightAware Approximate
10:57PM 3.5033 -80.9257 145° Southeast  Level FlightAware Approximate
10:58PM 3.4025 -80.8563 146° Southeast  Level FlightAware Approximate
10:59PM 3.3017 -80.7869 146° Southeast  Level FlightAware Approximate
11:00PM 3.2008 -80.7175 146° Southeast  Level FlightAware Approximate
11:01PM 3.1000 -80.6481 146° Southeast  Level FlightAware Approximate
11:02PM 2.9991 -80.5788 146° Southeast  Level FlightAware Approximate
11:03PM 2.8982 -80.5094 146° Southeast  Level FlightAware Approximate
11:04PM 2.7974 -80.4401 146° Southeast  Level FlightAware Approximate
11:05PM 2.6965 -80.3708 146° Southeast  Level FlightAware Approximate
11:06PM 2.5956 -80.3015 146° Southeast  Level FlightAware Approximate
11:07PM 2.4947 -80.2322 146° Southeast  Level FlightAware Approximate
11:08PM 2.3939 -80.1629 146° Southeast  Level FlightAware Approximate
11:09PM 2.2930 -80.0936 146° Southeast  Level FlightAware Approximate
11:10PM 2.1921 -80.0243 146° Southeast  Level FlightAware Approximate
11:11PM 2.0912 -79.9551 146° Southeast  Level FlightAware Approximate
11:12PM 1.9903 -79.8858 146° Southeast  Level FlightAware Approximate
11:13PM 1.8894 -79.8166 146° Southeast  Level FlightAware Approximate
11:14PM 1.7884 -79.7474 146° Southeast  Level FlightAware Approximate
11:15PM 1.6873 -79.6785 146° Southeast  Level FlightAware Approximate
11:16PM 1.5862 -79.6095 146° Southeast  Level FlightAware Approximate
11:17PM 1.4851 -79.5406 146° Southeast  Level FlightAware Approximate
11:18PM 1.3788 -79.4805 148° Southeast  Level FlightAware Approximate
11:19PM 1.2751 -79.4157 148° Southeast  Level FlightAware Approximate
11:20PM 1.1745 -79.3460 144° Southeast  Level FlightAware Approximate
11:21PM 1.0749 -79.2749 144° Southeast  Level FlightAware Approximate
11:22PM 0.9753 -79.2038 144° Southeast  Level FlightAware Approximate
11:23PM 0.8751 -79.1337 147° Southeast  Level FlightAware Approximate
11:24PM 0.7727 -79.0667 147° Southeast  Level FlightAware Approximate
11:25PM 0.6703 -78.9998 147° Southeast  Level FlightAware Approximate
11:26PM 0.5679 -78.9328 147° Southeast  Level FlightAware Approximate
11:27PM 0.4655 -78.8658 143° Southeast  Level FlightAware Approximate
11:28PM 0.3676 -78.7924 143° Southeast  Level FlightAware Approximate
11:29PM 0.2663 -78.7240 148° Southeast  Level FlightAware Approximate
11:30PM 0.1631 -78.6583 148° Southeast  Level FlightAware Approximate
11:31PM 0.0645 -78.5859 143° Southeast  Level FlightAware Approximate
11:32PM -0.0276 -78.5058 135° Southeast  Level FlightAware Approximate
11:33PM -0.0814 -78.3965 112° Southeast  Level FlightAware Approximate
11:34PM -0.1000 -78.3500 112° Southeast  Level FlightAware Approximate
11:35PM -0.1349 -78.4673 112° Southeast  Level Estimated
11:36PM -0.1411 -78.4882 112° Southeast  Level Estimated
11:37PM -0.1411 -78.4882 112° Southeast  Level Estimated
11:38PM -0.1411 -78.4882 112° Southeast  Level Estimated
11:39PM -0.1411 -78.4882 112° Southeast  Level Estimated
11:40PM -0.1411 -78.4882 112° Southeast  Level Estimated
11:41PM -0.1411 -78.4882 112° Southeast  Level Estimated
11:42PM -0.1411 -78.4882 112° Southeast  Level Estimated
11:43PM -0.1411 -78.4882 112° Southeast  Level Estimated
11:44PM -0.1411 -78.4882 112° Southeast  Level Estimated